createdAt,value
2022-09-10T00:03:08.560Z,13.50
2022-09-10T00:08:12.439Z,13.40
2022-09-10T00:13:21.069Z,15.90
2022-09-10T00:18:24.054Z,16.10
2022-09-10T00:23:30.055Z,12.10
2022-09-10T00:28:33.005Z,12.70
2022-09-10T00:33:35.889Z,16.10
2022-09-10T00:38:38.967Z,10.30
2022-09-10T00:44:02.525Z,14.90
2022-09-10T00:49:21.506Z,13.50
2022-09-10T01:10:36.145Z,9.40
2022-09-10T01:16:02.539Z,11.00
2022-09-10T01:21:32.260Z,11.60
2022-09-10T01:27:19.160Z,16.00
2022-09-10T01:32:30.212Z,10.80
2022-09-10T01:37:37.911Z,14.20
2022-09-10T01:42:41.285Z,11.70
2022-09-10T01:48:01.831Z,12.50
2022-09-10T01:53:28.256Z,18.00
2022-09-10T01:58:40.206Z,16.20
2022-09-10T02:03:47.256Z,16.20
2022-09-10T02:08:53.874Z,15.90
2022-09-10T02:13:57.754Z,14.40
2022-09-10T02:19:01.558Z,15.20
2022-09-10T02:24:09.834Z,14.70
2022-09-10T02:29:14.281Z,17.50
2022-09-10T02:34:15.785Z,20.50
2022-09-10T02:39:17.353Z,22.80
2022-09-10T02:44:18.892Z,22.40
2022-09-10T02:49:21.105Z,26.70
2022-09-10T02:54:22.587Z,27.40
2022-09-10T02:59:24.576Z,28.60
2022-09-10T03:04:26.091Z,30.10
2022-09-10T03:09:28.268Z,28.90
2022-09-10T03:14:30.526Z,34.10
2022-09-10T03:19:32.034Z,29.70
2022-09-10T03:24:33.520Z,24.80
2022-09-10T03:29:35.699Z,24.70
2022-09-10T03:34:37.268Z,22.00
2022-09-10T03:39:38.742Z,20.60
2022-09-10T03:44:40.368Z,19.20
2022-09-10T03:49:42.173Z,23.30
2022-09-10T03:54:44.930Z,24.60
2022-09-10T03:59:46.561Z,27.20
2022-09-10T04:04:48.405Z,29.60
2022-09-10T04:09:50.227Z,24.50
2022-09-10T04:14:52.097Z,28.10
2022-09-10T04:19:53.659Z,28.50
2022-09-10T04:24:55.339Z,45.00
2022-09-10T04:29:57.077Z,35.30
2022-09-10T04:34:58.629Z,35.40
2022-09-10T04:40:00.570Z,31.30
2022-09-10T04:45:02.273Z,32.40
2022-09-10T04:50:05.928Z,28.80
2022-09-10T04:55:07.893Z,38.90
2022-09-10T05:00:10.540Z,30.50
2022-09-10T05:05:12.060Z,32.90
2022-09-10T05:10:14.746Z,28.20
2022-09-10T05:15:16.311Z,29.80
2022-09-10T05:20:17.813Z,29.00
2022-09-10T05:25:19.265Z,28.30
2022-09-10T05:30:21.359Z,26.90
2022-09-10T05:35:22.846Z,29.90
2022-09-10T05:40:24.856Z,31.70
2022-09-10T05:45:26.561Z,26.50
2022-09-10T05:50:29.776Z,33.70
2022-09-10T05:55:32.591Z,34.50
2022-09-10T06:00:35.896Z,31.90
2022-09-10T06:05:37.426Z,32.70
2022-09-10T06:10:38.933Z,29.30
2022-09-10T06:15:41.650Z,28.60
2022-09-10T06:20:43.145Z,24.00
2022-09-10T06:25:45.465Z,20.00
2022-09-10T06:30:46.974Z,19.50
2022-09-10T06:35:53.997Z,19.70
2022-09-10T06:41:00.090Z,18.00
2022-09-10T06:46:19.259Z,22.80
2022-09-10T06:51:31.436Z,22.40
2022-09-10T06:56:33.436Z,23.00
2022-09-10T07:01:35.229Z,16.00
2022-09-10T07:06:37.779Z,26.40
2022-09-10T07:11:41.768Z,17.30
2022-09-10T07:16:44.043Z,22.70
2022-09-10T07:21:45.551Z,22.80
2022-09-10T07:26:47.083Z,19.60
2022-09-10T07:31:49.016Z,22.70
2022-09-10T07:36:50.748Z,29.30
2022-09-10T07:41:52.878Z,20.10
2022-09-10T07:46:54.422Z,29.20
2022-09-10T07:51:59.776Z,33.00
2022-09-10T07:57:02.529Z,26.70
2022-09-10T08:02:05.927Z,20.40
2022-09-10T08:07:07.783Z,17.10
2022-09-10T08:12:09.348Z,25.30
2022-09-10T08:17:10.927Z,22.90
2022-09-10T08:22:13.847Z,16.20
2022-09-10T08:27:16.850Z,22.80
2022-09-10T08:32:18.410Z,22.80
2022-09-10T08:37:20.894Z,18.00
2022-09-10T08:42:32.740Z,13.30
2022-09-10T08:48:01.907Z,12.80
2022-09-10T08:53:22.575Z,13.90
2022-09-10T08:58:41.956Z,15.40
2022-09-10T09:03:46.839Z,15.50
2022-09-10T09:08:49.639Z,12.90
2022-09-10T09:14:12.485Z,16.90
2022-09-10T09:19:48.974Z,13.30
2022-09-10T09:25:03.543Z,11.10
2022-09-10T09:30:16.799Z,10.60
2022-09-10T09:35:31.862Z,11.10
2022-09-10T09:40:50.144Z,12.00
2022-09-10T09:45:53.393Z,11.80
2022-09-10T09:50:59.762Z,19.00
2022-09-10T09:56:10.383Z,20.90
2022-09-10T10:01:17.589Z,21.80
2022-09-10T10:06:28.093Z,20.00
2022-09-10T10:11:44.901Z,14.40
2022-09-10T10:16:48.318Z,15.30
2022-09-10T10:21:49.928Z,15.90
2022-09-10T10:26:51.556Z,18.20
2022-09-10T10:31:55.583Z,18.20
2022-09-10T10:37:42.430Z,15.60
2022-09-10T10:43:15.713Z,16.80
2022-09-10T10:48:29.093Z,16.60
2022-09-10T10:54:04.853Z,15.50
2022-09-10T10:59:36.335Z,32.40
2022-09-10T11:04:53.680Z,20.30
2022-09-10T11:10:24.261Z,23.10
2022-09-10T11:15:53.324Z,17.10
2022-09-10T11:21:15.755Z,35.40
2022-09-10T11:26:54.050Z,19.90
2022-09-10T11:32:17.799Z,17.50
2022-09-10T11:37:22.038Z,17.50
2022-09-10T11:42:41.354Z,19.80
2022-09-10T11:48:01.536Z,21.10
2022-09-10T11:53:06.764Z,21.90
2022-09-10T11:58:45.656Z,20.30
2022-09-10T12:04:08.205Z,29.00
2022-09-10T12:09:49.207Z,21.00
2022-09-10T12:14:51.042Z,22.10
2022-09-10T12:19:55.972Z,20.70
2022-09-10T12:25:15.755Z,23.60
2022-09-10T12:30:30.294Z,18.60
2022-09-10T12:35:34.894Z,23.20
2022-09-10T12:40:36.423Z,22.30
2022-09-10T12:46:09.278Z,22.70
2022-09-10T12:51:17.457Z,26.50
2022-09-10T12:56:56.877Z,25.30
2022-09-10T13:01:59.198Z,19.50
2022-09-10T13:07:27.372Z,24.30
2022-09-10T13:12:32.238Z,24.50
2022-09-10T13:18:00.732Z,25.70
2022-09-10T13:23:08.255Z,29.30
2022-09-10T13:28:29.295Z,26.50
2022-09-10T13:33:44.901Z,34.50
2022-09-10T13:39:40.923Z,25.70
2022-09-10T13:45:22.983Z,29.70
2022-09-10T13:50:37.162Z,32.80
2022-09-10T13:55:54.574Z,27.70
2022-09-10T14:01:05.854Z,31.80
2022-09-10T14:06:22.124Z,33.70
2022-09-10T14:11:29.781Z,35.50
2022-09-10T14:16:37.410Z,40.40
2022-09-10T14:21:38.962Z,39.90
2022-09-10T14:26:40.543Z,36.80
2022-09-10T14:31:42.248Z,38.90
2022-09-10T14:36:43.786Z,34.20
2022-09-10T14:41:46.469Z,30.30
2022-09-10T14:47:36.657Z,38.90
2022-09-10T14:52:38.391Z,37.90
2022-09-10T14:57:40.743Z,45.30
2022-09-10T15:02:42.399Z,51.00
2022-09-10T15:07:46.871Z,49.80
2022-09-10T15:12:51.918Z,45.00
2022-09-10T15:17:53.514Z,48.00
2022-09-10T15:22:55.126Z,48.70
2022-09-10T15:27:56.774Z,79.40
2022-09-10T15:32:58.360Z,71.40
2022-09-10T15:38:02.951Z,69.30
2022-09-10T15:43:05.601Z,66.40
2022-09-10T15:48:07.788Z,87.50
2022-09-10T15:53:20.695Z,79.30
2022-09-10T15:58:23.502Z,85.70
2022-09-10T16:03:25.708Z,95.10
2022-09-10T16:08:28.247Z,84.10
2022-09-10T16:13:30.635Z,74.90
2022-09-10T16:18:36.736Z,71.20
2022-09-10T16:23:41.453Z,61.70
2022-09-10T16:28:51.751Z,65.60
2022-09-10T16:33:55.890Z,60.40
2022-09-10T16:39:02.652Z,66.70
2022-09-10T16:44:05.343Z,69.00
2022-09-10T16:49:11.901Z,64.10
2022-09-10T16:54:15.331Z,67.20
2022-09-10T16:59:21.149Z,51.30
2022-09-10T17:04:29.140Z,48.90
2022-09-10T17:09:31.374Z,57.90
2022-09-10T17:14:33.022Z,56.40
2022-09-10T17:19:37.436Z,56.40
2022-09-10T17:24:38.961Z,51.30
2022-09-10T17:29:41.135Z,64.10
2022-09-10T17:34:44.760Z,73.30
2022-09-10T17:39:47.156Z,74.50
2022-09-10T17:44:48.907Z,76.90
2022-09-10T17:49:51.548Z,62.50
2022-09-10T17:54:53.404Z,66.70
2022-09-10T17:59:55.171Z,72.70
2022-09-10T18:04:57.147Z,76.20
2022-09-10T18:10:02.524Z,58.70
2022-09-10T18:15:05.837Z,69.10
2022-09-10T18:20:08.053Z,80.40
2022-09-10T18:25:09.696Z,78.90
2022-09-10T18:30:13.145Z,87.80
2022-09-10T18:35:14.852Z,81.40
2022-09-10T18:40:17.581Z,76.40
2022-09-10T18:45:19.946Z,83.10
2022-09-10T18:50:25.845Z,79.10
2022-09-10T18:55:28.153Z,79.80
2022-09-10T19:00:29.716Z,81.80
2022-09-10T19:05:31.607Z,90.30
2022-09-10T19:10:36.110Z,90.10
2022-09-10T19:15:37.668Z,82.80
2022-09-10T19:20:39.467Z,74.50
2022-09-10T19:25:56.698Z,75.90
2022-09-10T19:31:02.755Z,53.70
2022-09-10T19:36:09.537Z,53.40
2022-09-10T19:41:18.393Z,48.50
2022-09-10T19:46:24.610Z,56.70
2022-09-10T19:51:36.079Z,63.80
2022-09-10T19:56:41.950Z,57.90
2022-09-10T20:01:45.714Z,67.40
2022-09-10T20:06:50.256Z,74.40
2022-09-10T20:11:52.106Z,76.40
2022-09-10T20:16:54.221Z,74.50
2022-09-10T20:21:55.798Z,73.30
2022-09-10T20:26:57.747Z,69.40
2022-09-10T20:31:59.850Z,79.80
2022-09-10T20:37:02.539Z,85.30
2022-09-10T20:42:04.721Z,84.40
2022-09-10T20:47:08.528Z,77.90
2022-09-10T20:52:10.112Z,94.10
2022-09-10T20:57:11.971Z,80.70
2022-09-10T21:02:13.544Z,84.40
2022-09-10T21:07:16.575Z,62.70
2022-09-10T21:12:18.190Z,69.30
2022-09-10T21:17:19.739Z,78.50
2022-09-10T21:22:21.590Z,91.90
2022-09-10T21:27:23.488Z,84.10
2022-09-10T21:32:25.055Z,91.70
2022-09-10T21:37:26.583Z,86.10
2022-09-10T21:42:28.224Z,91.90
2022-09-10T21:47:30.564Z,86.70
2022-09-10T21:52:32.106Z,90.10
2022-09-10T21:57:33.669Z,72.80
2022-09-10T22:02:35.621Z,63.90
2022-09-10T22:07:37.162Z,65.50
2022-09-10T22:12:38.759Z,72.90
2022-09-10T22:17:40.792Z,62.50
2022-09-10T22:22:43.715Z,68.40
2022-09-10T22:27:45.216Z,77.80
2022-09-10T22:32:46.745Z,75.20
2022-09-10T22:37:48.266Z,74.00
2022-09-10T22:42:51.133Z,74.90
2022-09-10T22:47:52.693Z,73.10
2022-09-10T22:52:54.569Z,75.10
2022-09-10T22:57:56.064Z,71.10
2022-09-10T23:02:57.647Z,68.50
2022-09-10T23:07:59.198Z,70.90
2022-09-10T23:13:00.820Z,67.00
2022-09-10T23:18:02.367Z,71.60
2022-09-10T23:23:03.845Z,78.70
2022-09-10T23:28:07.360Z,93.30
2022-09-10T23:33:09.281Z,84.40
2022-09-10T23:38:10.826Z,102.00
2022-09-10T23:43:13.869Z,83.40
2022-09-10T23:48:15.407Z,86.00
2022-09-10T23:53:18.350Z,114.90
2022-09-10T23:58:21.044Z,78.10
